sensor_id;sensor_type;location;lat;lon;timestamp;P1;durP1;ratioP1;P2;durP2;ratioP2
14708;SDS011;7445;50.774;4.944;2022-11-15T20:24:41;855.43;;;489.90;;
14708;SDS011;7445;50.774;4.944;2022-11-15T20:27:06;1300.77;;;693.53;;
14708;SDS011;7445;50.774;4.944;2022-11-15T20:29:32;1050.03;;;578.97;;
14708;SDS011;7445;50.774;4.944;2022-11-15T20:31:58;850.50;;;494.40;;
14708;SDS011;7445;50.774;4.944;2022-11-15T20:34:23;191.47;;;106.10;;
14708;SDS011;7445;50.774;4.944;2022-11-15T20:36:49;44.63;;;24.50;;
14708;SDS011;7445;50.774;4.944;2022-11-15T20:39:14;168.17;;;80.70;;
14708;SDS011;7445;50.774;4.944;2022-11-15T20:41:40;104.00;;;49.23;;
14708;SDS011;7445;50.774;4.944;2022-11-15T20:44:05;24.97;;;15.33;;
14708;SDS011;7445;50.774;4.944;2022-11-15T20:46:31;8.40;;;7.60;;
14708;SDS011;7445;50.774;4.944;2022-11-15T20:48:57;10.37;;;7.17;;
14708;SDS011;7445;50.774;4.944;2022-11-15T20:51:22;7.80;;;7.13;;
14708;SDS011;7445;50.774;4.944;2022-11-15T20:53:48;6.87;;;6.17;;
14708;SDS011;7445;50.774;4.944;2022-11-15T20:56:14;7.10;;;6.40;;
14708;SDS011;7445;50.774;4.944;2022-11-15T20:58:44;7.07;;;6.37;;
14708;SDS011;7445;50.774;4.944;2022-11-15T21:01:11;8.07;;;6.40;;
14708;SDS011;7445;50.774;4.944;2022-11-15T21:03:38;7.83;;;7.07;;
14708;SDS011;7445;50.774;4.944;2022-11-15T21:06:04;9.20;;;7.00;;
14708;SDS011;7445;50.774;4.944;2022-11-15T21:08:30;9.47;;;7.13;;
14708;SDS011;7445;50.774;4.944;2022-11-15T21:11:16;8.63;;;7.27;;
14708;SDS011;7445;50.774;4.944;2022-11-15T21:14:01;6.77;;;6.17;;
14708;SDS011;7445;50.774;4.944;2022-11-15T21:16:28;7.60;;;6.90;;
14708;SDS011;7445;50.774;4.944;2022-11-15T21:18:54;7.10;;;6.40;;
14708;SDS011;7445;50.774;4.944;2022-11-15T21:21:19;6.70;;;6.17;;
14708;SDS011;7445;50.774;4.944;2022-11-15T21:23:45;7.93;;;6.37;;
14708;SDS011;7445;50.774;4.944;2022-11-15T21:26:10;6.93;;;6.20;;
14708;SDS011;7445;50.774;4.944;2022-11-15T21:28:38;8.00;;;6.73;;
14708;SDS011;7445;50.774;4.944;2022-11-15T21:31:04;9.80;;;7.07;;
14708;SDS011;7445;50.774;4.944;2022-11-15T21:33:30;7.83;;;7.13;;
14708;SDS011;7445;50.774;4.944;2022-11-15T21:35:58;10.13;;;7.40;;
14708;SDS011;7445;50.774;4.944;2022-11-15T21:38:26;7.37;;;6.77;;
14708;SDS011;7445;50.774;4.944;2022-11-15T21:40:52;119.13;;;106.13;;
14708;SDS011;7445;50.774;4.944;2022-11-15T21:43:18;13.60;;;12.30;;
14708;SDS011;7445;50.774;4.944;2022-11-15T21:45:57;9.77;;;8.43;;
14708;SDS011;7445;50.774;4.944;2022-11-15T21:48:25;13.50;;;12.30;;
14708;SDS011;7445;50.774;4.944;2022-11-15T21:50:58;10.07;;;8.97;;
14708;SDS011;7445;50.774;4.944;2022-11-15T21:53:28;8.93;;;7.70;;
14708;SDS011;7445;50.774;4.944;2022-11-15T21:55:55;10.60;;;8.27;;
14708;SDS011;7445;50.774;4.944;2022-11-15T21:58:21;9.13;;;7.93;;
14708;SDS011;7445;50.774;4.944;2022-11-15T22:00:47;9.07;;;8.27;;
14708;SDS011;7445;50.774;4.944;2022-11-15T22:03:32;8.07;;;7.37;;
14708;SDS011;7445;50.774;4.944;2022-11-15T22:05:58;8.90;;;8.10;;
14708;SDS011;7445;50.774;4.944;2022-11-15T22:08:24;8.80;;;8.00;;
14708;SDS011;7445;50.774;4.944;2022-11-15T22:10:50;8.60;;;7.30;;
14708;SDS011;7445;50.774;4.944;2022-11-15T22:13:16;8.80;;;7.90;;
14708;SDS011;7445;50.774;4.944;2022-11-15T22:15:45;8.10;;;6.93;;
14708;SDS011;7445;50.774;4.944;2022-11-15T22:18:12;8.57;;;6.73;;
14708;SDS011;7445;50.774;4.944;2022-11-15T22:20:38;8.97;;;6.73;;
14708;SDS011;7445;50.774;4.944;2022-11-15T22:23:03;9.03;;;7.13;;
14708;SDS011;7445;50.774;4.944;2022-11-15T22:25:29;7.57;;;6.77;;
14708;SDS011;7445;50.774;4.944;2022-11-15T22:27:56;7.17;;;6.47;;
14708;SDS011;7445;50.774;4.944;2022-11-15T22:30:22;7.93;;;7.10;;
14708;SDS011;7445;50.774;4.944;2022-11-15T22:32:49;8.47;;;7.53;;
14708;SDS011;7445;50.774;4.944;2022-11-15T22:35:15;8.17;;;7.37;;
14708;SDS011;7445;50.774;4.944;2022-11-15T22:37:41;7.47;;;6.80;;
14708;SDS011;7445;50.774;4.944;2022-11-15T22:40:07;7.70;;;6.60;;
14708;SDS011;7445;50.774;4.944;2022-11-15T22:42:33;8.00;;;7.30;;
14708;SDS011;7445;50.774;4.944;2022-11-15T22:44:59;8.43;;;7.63;;
14708;SDS011;7445;50.774;4.944;2022-11-15T22:47:24;8.20;;;7.50;;
14708;SDS011;7445;50.774;4.944;2022-11-15T22:49:50;8.20;;;7.40;;
14708;SDS011;7445;50.774;4.944;2022-11-15T22:52:16;9.47;;;8.57;;
14708;SDS011;7445;50.774;4.944;2022-11-15T22:54:42;8.20;;;7.50;;
14708;SDS011;7445;50.774;4.944;2022-11-15T22:57:08;8.03;;;7.23;;
14708;SDS011;7445;50.774;4.944;2022-11-15T22:59:34;9.07;;;8.17;;
14708;SDS011;7445;50.774;4.944;2022-11-15T23:02:01;9.15;;;7.88;;
14708;SDS011;7445;50.774;4.944;2022-11-15T23:04:28;7.73;;;7.13;;
14708;SDS011;7445;50.774;4.944;2022-11-15T23:06:54;7.63;;;6.47;;
14708;SDS011;7445;50.774;4.944;2022-11-15T23:09:20;8.10;;;7.40;;
14708;SDS011;7445;50.774;4.944;2022-11-15T23:11:46;7.90;;;7.10;;
14708;SDS011;7445;50.774;4.944;2022-11-15T23:14:30;7.73;;;6.93;;
14708;SDS011;7445;50.774;4.944;2022-11-15T23:16:56;6.90;;;6.37;;
14708;SDS011;7445;50.774;4.944;2022-11-15T23:19:23;6.77;;;6.20;;
14708;SDS011;7445;50.774;4.944;2022-11-15T23:21:48;8.10;;;6.87;;
14708;SDS011;7445;50.774;4.944;2022-11-15T23:24:34;16.83;;;15.20;;
14708;SDS011;7445;50.774;4.944;2022-11-15T23:27:01;14.57;;;13.13;;
14708;SDS011;7445;50.774;4.944;2022-11-15T23:29:33;8.90;;;7.37;;
14708;SDS011;7445;50.774;4.944;2022-11-15T23:32:22;9.90;;;9.20;;
14708;SDS011;7445;50.774;4.944;2022-11-15T23:35:06;11.47;;;10.57;;
14708;SDS011;7445;50.774;4.944;2022-11-15T23:37:32;10.23;;;9.50;;
14708;SDS011;7445;50.774;4.944;2022-11-15T23:39:58;8.60;;;7.90;;
14708;SDS011;7445;50.774;4.944;2022-11-15T23:42:24;7.97;;;7.07;;
14708;SDS011;7445;50.774;4.944;2022-11-15T23:44:54;8.83;;;8.13;;
14708;SDS011;7445;50.774;4.944;2022-11-15T23:47:22;7.90;;;7.20;;
14708;SDS011;7445;50.774;4.944;2022-11-15T23:49:51;7.77;;;6.77;;
14708;SDS011;7445;50.774;4.944;2022-11-15T23:52:17;7.77;;;6.97;;
14708;SDS011;7445;50.774;4.944;2022-11-15T23:54:42;7.73;;;6.93;;
14708;SDS011;7445;50.774;4.944;2022-11-15T23:57:10;5.83;;;5.33;;
14708;SDS011;7445;50.774;4.944;2022-11-15T23:59:39;6.97;;;5.90;;
